sensor_id;sensor_type;location;lat;lon;timestamp;P1;durP1;ratioP1;P2;durP2;ratioP2
53646;SDS011;39550;52.230;5.194;2024-03-17T00:02:16;9.15;;;5.10;;
53646;SDS011;39550;52.230;5.194;2024-03-17T00:04:42;10.13;;;4.97;;
53646;SDS011;39550;52.230;5.194;2024-03-17T00:07:07;9.00;;;5.18;;
53646;SDS011;39550;52.230;5.194;2024-03-17T00:09:33;12.60;;;5.05;;
53646;SDS011;39550;52.230;5.194;2024-03-17T00:11:58;9.10;;;5.40;;
53646;SDS011;39550;52.230;5.194;2024-03-17T00:14:25;10.73;;;4.65;;
53646;SDS011;39550;52.230;5.194;2024-03-17T00:16:52;8.13;;;4.60;;
53646;SDS011;39550;52.230;5.194;2024-03-17T00:19:17;11.00;;;5.10;;
53646;SDS011;39550;52.230;5.194;2024-03-17T00:21:43;8.40;;;4.70;;
53646;SDS011;39550;52.230;5.194;2024-03-17T00:24:09;10.95;;;5.47;;
53646;SDS011;39550;52.230;5.194;2024-03-17T00:26:34;11.60;;;5.65;;
53646;SDS011;39550;52.230;5.194;2024-03-17T00:29:00;9.20;;;4.60;;
53646;SDS011;39550;52.230;5.194;2024-03-17T00:31:25;8.98;;;5.15;;
53646;SDS011;39550;52.230;5.194;2024-03-17T00:33:53;8.77;;;4.78;;
53646;SDS011;39550;52.230;5.194;2024-03-17T00:36:19;8.35;;;4.65;;
53646;SDS011;39550;52.230;5.194;2024-03-17T00:38:44;9.80;;;4.88;;
53646;SDS011;39550;52.230;5.194;2024-03-17T00:41:09;8.23;;;4.53;;
53646;SDS011;39550;52.230;5.194;2024-03-17T00:43:34;9.27;;;5.40;;
53646;SDS011;39550;52.230;5.194;2024-03-17T00:46:02;9.40;;;5.15;;
53646;SDS011;39550;52.230;5.194;2024-03-17T00:48:27;9.95;;;4.90;;
53646;SDS011;39550;52.230;5.194;2024-03-17T00:50:56;9.13;;;5.47;;
53646;SDS011;39550;52.230;5.194;2024-03-17T00:53:22;8.13;;;4.65;;
53646;SDS011;39550;52.230;5.194;2024-03-17T00:55:51;10.40;;;5.10;;
53646;SDS011;39550;52.230;5.194;2024-03-17T00:58:17;9.23;;;5.05;;
53646;SDS011;39550;52.230;5.194;2024-03-17T01:00:43;8.18;;;4.82;;
53646;SDS011;39550;52.230;5.194;2024-03-17T01:03:08;9.75;;;5.15;;
53646;SDS011;39550;52.230;5.194;2024-03-17T01:05:34;7.72;;;5.05;;
53646;SDS011;39550;52.230;5.194;2024-03-17T01:07:59;12.40;;;5.93;;
53646;SDS011;39550;52.230;5.194;2024-03-17T01:10:24;8.90;;;5.03;;
53646;SDS011;39550;52.230;5.194;2024-03-17T01:12:49;11.10;;;5.22;;
53646;SDS011;39550;52.230;5.194;2024-03-17T01:15:15;7.78;;;4.60;;
53646;SDS011;39550;52.230;5.194;2024-03-17T01:17:40;12.63;;;5.43;;
53646;SDS011;39550;52.230;5.194;2024-03-17T01:20:06;10.32;;;5.13;;
53646;SDS011;39550;52.230;5.194;2024-03-17T01:22:32;8.25;;;5.10;;
53646;SDS011;39550;52.230;5.194;2024-03-17T01:24:57;10.90;;;5.03;;
53646;SDS011;39550;52.230;5.194;2024-03-17T01:27:23;10.32;;;5.22;;
53646;SDS011;39550;52.230;5.194;2024-03-17T01:29:48;12.45;;;5.03;;
53646;SDS011;39550;52.230;5.194;2024-03-17T01:32:13;8.82;;;4.85;;
53646;SDS011;39550;52.230;5.194;2024-03-17T01:34:39;8.93;;;4.63;;
53646;SDS011;39550;52.230;5.194;2024-03-17T01:37:05;8.75;;;5.13;;
53646;SDS011;39550;52.230;5.194;2024-03-17T01:39:30;11.80;;;5.28;;
53646;SDS011;39550;52.230;5.194;2024-03-17T01:41:57;9.77;;;5.03;;
53646;SDS011;39550;52.230;5.194;2024-03-17T01:44:24;9.68;;;4.85;;
53646;SDS011;39550;52.230;5.194;2024-03-17T01:46:51;11.13;;;4.97;;
53646;SDS011;39550;52.230;5.194;2024-03-17T01:49:17;11.27;;;5.15;;
53646;SDS011;39550;52.230;5.194;2024-03-17T01:51:43;8.95;;;4.47;;
53646;SDS011;39550;52.230;5.194;2024-03-17T01:54:10;9.43;;;4.97;;
53646;SDS011;39550;52.230;5.194;2024-03-17T01:56:36;14.20;;;5.82;;
53646;SDS011;39550;52.230;5.194;2024-03-17T01:59:02;9.85;;;4.90;;
53646;SDS011;39550;52.230;5.194;2024-03-17T02:01:29;8.77;;;4.78;;
53646;SDS011;39550;52.230;5.194;2024-03-17T02:03:55;11.73;;;5.32;;
53646;SDS011;39550;52.230;5.194;2024-03-17T02:06:21;7.90;;;4.63;;
53646;SDS011;39550;52.230;5.194;2024-03-17T02:11:25;17.17;;;5.40;;
53646;SDS011;39550;52.230;5.194;2024-03-17T02:13:52;9.23;;;5.30;;
53646;SDS011;39550;52.230;5.194;2024-03-17T02:16:18;9.27;;;5.15;;
53646;SDS011;39550;52.230;5.194;2024-03-17T02:18:44;8.32;;;5.03;;
53646;SDS011;39550;52.230;5.194;2024-03-17T02:21:10;8.57;;;4.80;;
53646;SDS011;39550;52.230;5.194;2024-03-17T02:23:35;6.15;;;3.92;;
53646;SDS011;39550;52.230;5.194;2024-03-17T02:26:00;9.02;;;4.60;;
53646;SDS011;39550;52.230;5.194;2024-03-17T02:28:26;9.55;;;5.22;;
53646;SDS011;39550;52.230;5.194;2024-03-17T02:30:51;10.65;;;4.60;;
53646;SDS011;39550;52.230;5.194;2024-03-17T02:33:16;8.27;;;5.13;;
53646;SDS011;39550;52.230;5.194;2024-03-17T02:35:42;9.43;;;4.75;;
53646;SDS011;39550;52.230;5.194;2024-03-17T02:38:07;8.45;;;5.15;;
53646;SDS011;39550;52.230;5.194;2024-03-17T02:40:36;9.80;;;4.90;;
53646;SDS011;39550;52.230;5.194;2024-03-17T02:43:02;7.13;;;4.82;;
53646;SDS011;39550;52.230;5.194;2024-03-17T02:45:27;10.80;;;5.00;;
53646;SDS011;39550;52.230;5.194;2024-03-17T02:47:52;11.70;;;4.55;;
53646;SDS011;39550;52.230;5.194;2024-03-17T02:50:18;8.23;;;4.88;;
53646;SDS011;39550;52.230;5.194;2024-03-17T02:52:43;10.43;;;6.95;;
53646;SDS011;39550;52.230;5.194;2024-03-17T02:55:09;7.03;;;4.65;;
53646;SDS011;39550;52.230;5.194;2024-03-17T02:57:34;9.52;;;4.70;;
53646;SDS011;39550;52.230;5.194;2024-03-17T03:00:00;11.50;;;5.10;;
53646;SDS011;39550;52.230;5.194;2024-03-17T03:02:25;10.65;;;4.68;;
53646;SDS011;39550;52.230;5.194;2024-03-17T03:04:50;8.60;;;5.43;;
53646;SDS011;39550;52.230;5.194;2024-03-17T03:07:16;8.23;;;4.72;;
53646;SDS011;39550;52.230;5.194;2024-03-17T03:09:41;10.55;;;5.03;;
53646;SDS011;39550;52.230;5.194;2024-03-17T03:12:07;8.65;;;5.10;;
53646;SDS011;39550;52.230;5.194;2024-03-17T03:14:32;10.52;;;5.63;;
53646;SDS011;39550;52.230;5.194;2024-03-17T03:16:58;11.18;;;5.28;;
53646;SDS011;39550;52.230;5.194;2024-03-17T03:19:23;11.57;;;4.70;;
53646;SDS011;39550;52.230;5.194;2024-03-17T03:21:49;13.02;;;5.55;;
53646;SDS011;39550;52.230;5.194;2024-03-17T03:24:15;10.30;;;5.05;;
53646;SDS011;39550;52.230;5.194;2024-03-17T03:26:41;10.30;;;5.00;;
53646;SDS011;39550;52.230;5.194;2024-03-17T03:29:06;8.40;;;5.10;;
53646;SDS011;39550;52.230;5.194;2024-03-17T03:31:32;9.00;;;4.60;;
53646;SDS011;39550;52.230;5.194;2024-03-17T03:33:58;9.23;;;5.20;;
53646;SDS011;39550;52.230;5.194;2024-03-17T03:36:26;8.27;;;4.95;;
53646;SDS011;39550;52.230;5.194;2024-03-17T03:38:51;8.18;;;4.60;;
53646;SDS011;39550;52.230;5.194;2024-03-17T03:41:18;7.32;;;4.55;;
53646;SDS011;39550;52.230;5.194;2024-03-17T03:43:43;10.55;;;4.55;;
53646;SDS011;39550;52.230;5.194;2024-03-17T03:46:11;7.13;;;4.55;;
53646;SDS011;39550;52.230;5.194;2024-03-17T03:48:36;8.25;;;4.47;;
53646;SDS011;39550;52.230;5.194;2024-03-17T03:51:07;7.82;;;5.13;;
53646;SDS011;39550;52.230;5.194;2024-03-17T03:53:34;11.98;;;5.07;;
53646;SDS011;39550;52.230;5.194;2024-03-17T03:56:02;9.32;;;5.05;;
53646;SDS011;39550;52.230;5.194;2024-03-17T03:58:31;7.63;;;4.10;;
53646;SDS011;39550;52.230;5.194;2024-03-17T04:01:05;8.90;;;4.90;;
53646;SDS011;39550;52.230;5.194;2024-03-17T04:03:35;10.40;;;5.10;;
53646;SDS011;39550;52.230;5.194;2024-03-17T04:06:05;11.30;;;5.28;;
53646;SDS011;39550;52.230;5.194;2024-03-17T04:08:32;8.13;;;4.13;;
53646;SDS011;39550;52.230;5.194;2024-03-17T04:10:58;8.63;;;4.40;;
53646;SDS011;39550;52.230;5.194;2024-03-17T04:13:24;9.02;;;5.35;;
53646;SDS011;39550;52.230;5.194;2024-03-17T04:15:49;9.80;;;5.20;;
53646;SDS011;39550;52.230;5.194;2024-03-17T04:18:14;8.35;;;4.65;;
53646;SDS011;39550;52.230;5.194;2024-03-17T04:20:42;7.45;;;4.50;;
53646;SDS011;39550;52.230;5.194;2024-03-17T04:23:08;8.38;;;4.75;;
53646;SDS011;39550;52.230;5.194;2024-03-17T04:25:33;8.18;;;5.03;;
53646;SDS011;39550;52.230;5.194;2024-03-17T04:27:58;8.75;;;5.22;;
53646;SDS011;39550;52.230;5.194;2024-03-17T04:30:23;9.63;;;5.15;;
53646;SDS011;39550;52.230;5.194;2024-03-17T04:32:49;9.77;;;4.95;;
53646;SDS011;39550;52.230;5.194;2024-03-17T04:35:15;10.68;;;5.22;;
53646;SDS011;39550;52.230;5.194;2024-03-17T04:37:40;8.68;;;5.45;;
53646;SDS011;39550;52.230;5.194;2024-03-17T04:40:06;8.10;;;4.78;;
53646;SDS011;39550;52.230;5.194;2024-03-17T04:42:34;7.43;;;5.00;;
53646;SDS011;39550;52.230;5.194;2024-03-17T04:45:00;10.45;;;5.20;;
53646;SDS011;39550;52.230;5.194;2024-03-17T04:47:25;9.40;;;5.75;;
53646;SDS011;39550;52.230;5.194;2024-03-17T04:49:51;8.90;;;5.65;;
53646;SDS011;39550;52.230;5.194;2024-03-17T04:52:16;8.70;;;5.10;;
53646;SDS011;39550;52.230;5.194;2024-03-17T04:54:41;10.30;;;5.68;;
53646;SDS011;39550;52.230;5.194;2024-03-17T04:57:08;8.63;;;5.32;;
53646;SDS011;39550;52.230;5.194;2024-03-17T04:59:34;10.48;;;6.15;;
53646;SDS011;39550;52.230;5.194;2024-03-17T05:02:00;8.15;;;5.43;;
53646;SDS011;39550;52.230;5.194;2024-03-17T05:04:25;10.02;;;5.47;;
53646;SDS011;39550;52.230;5.194;2024-03-17T05:06:50;8.98;;;5.55;;
53646;SDS011;39550;52.230;5.194;2024-03-17T05:09:16;9.63;;;4.82;;
53646;SDS011;39550;52.230;5.194;2024-03-17T05:11:42;11.05;;;5.43;;
53646;SDS011;39550;52.230;5.194;2024-03-17T05:14:08;10.90;;;5.53;;
53646;SDS011;39550;52.230;5.194;2024-03-17T05:16:34;13.63;;;5.40;;
53646;SDS011;39550;52.230;5.194;2024-03-17T05:18:59;10.27;;;5.85;;
53646;SDS011;39550;52.230;5.194;2024-03-17T05:21:25;9.93;;;5.40;;
53646;SDS011;39550;52.230;5.194;2024-03-17T05:23:51;7.53;;;4.88;;
53646;SDS011;39550;52.230;5.194;2024-03-17T05:26:17;13.10;;;5.90;;
53646;SDS011;39550;52.230;5.194;2024-03-17T05:28:42;11.48;;;6.15;;
53646;SDS011;39550;52.230;5.194;2024-03-17T05:31:08;9.25;;;5.68;;
53646;SDS011;39550;52.230;5.194;2024-03-17T05:33:34;9.18;;;5.50;;
53646;SDS011;39550;52.230;5.194;2024-03-17T05:36:00;10.48;;;5.68;;
53646;SDS011;39550;52.230;5.194;2024-03-17T05:38:27;9.07;;;5.82;;
53646;SDS011;39550;52.230;5.194;2024-03-17T05:40:57;9.63;;;5.32;;
53646;SDS011;39550;52.230;5.194;2024-03-17T05:43:26;10.05;;;5.72;;
53646;SDS011;39550;52.230;5.194;2024-03-17T05:45:53;9.68;;;5.45;;
53646;SDS011;39550;52.230;5.194;2024-03-17T05:48:19;9.10;;;5.28;;
53646;SDS011;39550;52.230;5.194;2024-03-17T05:50:45;9.40;;;5.45;;
53646;SDS011;39550;52.230;5.194;2024-03-17T05:53:11;9.45;;;5.15;;
53646;SDS011;39550;52.230;5.194;2024-03-17T05:55:37;9.35;;;5.78;;
53646;SDS011;39550;52.230;5.194;2024-03-17T05:58:02;11.43;;;5.60;;
53646;SDS011;39550;52.230;5.194;2024-03-17T06:00:28;9.02;;;5.50;;
53646;SDS011;39550;52.230;5.194;2024-03-17T06:02:55;9.95;;;5.85;;
53646;SDS011;39550;52.230;5.194;2024-03-17T06:05:20;10.88;;;5.53;;
53646;SDS011;39550;52.230;5.194;2024-03-17T06:07:46;9.45;;;5.18;;
53646;SDS011;39550;52.230;5.194;2024-03-17T06:10:12;10.23;;;5.60;;
53646;SDS011;39550;52.230;5.194;2024-03-17T06:12:37;8.10;;;5.22;;
53646;SDS011;39550;52.230;5.194;2024-03-17T06:15:03;8.95;;;5.55;;
53646;SDS011;39550;52.230;5.194;2024-03-17T06:17:28;9.70;;;5.30;;
53646;SDS011;39550;52.230;5.194;2024-03-17T06:19:53;10.60;;;5.85;;
53646;SDS011;39550;52.230;5.194;2024-03-17T06:22:19;8.20;;;5.25;;
53646;SDS011;39550;52.230;5.194;2024-03-17T06:24:44;7.70;;;5.15;;
53646;SDS011;39550;52.230;5.194;2024-03-17T06:27:09;8.77;;;5.38;;
53646;SDS011;39550;52.230;5.194;2024-03-17T06:29:34;10.88;;;5.65;;
53646;SDS011;39550;52.230;5.194;2024-03-17T06:32:00;9.55;;;5.60;;
53646;SDS011;39550;52.230;5.194;2024-03-17T06:34:25;9.63;;;5.57;;
53646;SDS011;39550;52.230;5.194;2024-03-17T06:36:51;9.38;;;5.22;;
53646;SDS011;39550;52.230;5.194;2024-03-17T06:39:16;8.45;;;5.03;;
53646;SDS011;39550;52.230;5.194;2024-03-17T06:41:42;9.07;;;5.45;;
53646;SDS011;39550;52.230;5.194;2024-03-17T06:44:08;11.27;;;5.72;;
53646;SDS011;39550;52.230;5.194;2024-03-17T06:46:34;8.60;;;5.45;;
53646;SDS011;39550;52.230;5.194;2024-03-17T06:48:59;8.80;;;5.63;;
53646;SDS011;39550;52.230;5.194;2024-03-17T06:51:25;8.98;;;5.55;;
53646;SDS011;39550;52.230;5.194;2024-03-17T06:53:50;9.38;;;5.55;;
53646;SDS011;39550;52.230;5.194;2024-03-17T06:56:15;8.75;;;5.15;;
53646;SDS011;39550;52.230;5.194;2024-03-17T06:58:41;8.95;;;5.95;;
53646;SDS011;39550;52.230;5.194;2024-03-17T07:01:06;10.27;;;5.78;;
53646;SDS011;39550;52.230;5.194;2024-03-17T07:03:32;9.40;;;5.97;;
53646;SDS011;39550;52.230;5.194;2024-03-17T07:05:58;12.43;;;6.05;;
53646;SDS011;39550;52.230;5.194;2024-03-17T07:10:56;8.32;;;5.22;;
53646;SDS011;39550;52.230;5.194;2024-03-17T07:13:28;9.50;;;5.40;;
53646;SDS011;39550;52.230;5.194;2024-03-17T07:16:01;9.38;;;5.53;;
53646;SDS011;39550;52.230;5.194;2024-03-17T07:18:31;9.32;;;4.90;;
53646;SDS011;39550;52.230;5.194;2024-03-17T07:21:00;11.27;;;6.53;;
53646;SDS011;39550;52.230;5.194;2024-03-17T07:23:30;9.13;;;5.47;;
53646;SDS011;39550;52.230;5.194;2024-03-17T07:25:57;7.97;;;5.15;;
53646;SDS011;39550;52.230;5.194;2024-03-17T07:28:24;8.95;;;5.78;;
53646;SDS011;39550;52.230;5.194;2024-03-17T07:30:50;8.23;;;5.43;;
53646;SDS011;39550;52.230;5.194;2024-03-17T07:33:17;8.95;;;5.35;;
53646;SDS011;39550;52.230;5.194;2024-03-17T07:35:55;8.15;;;5.07;;
53646;SDS011;39550;52.230;5.194;2024-03-17T07:38:22;9.57;;;5.47;;
53646;SDS011;39550;52.230;5.194;2024-03-17T07:40:55;9.73;;;6.32;;
53646;SDS011;39550;52.230;5.194;2024-03-17T07:43:23;9.60;;;5.60;;
53646;SDS011;39550;52.230;5.194;2024-03-17T07:45:59;8.90;;;5.43;;
53646;SDS011;39550;52.230;5.194;2024-03-17T07:48:29;10.63;;;5.63;;
53646;SDS011;39550;52.230;5.194;2024-03-17T07:50:55;9.40;;;5.30;;
53646;SDS011;39550;52.230;5.194;2024-03-17T07:53:22;8.80;;;4.68;;
53646;SDS011;39550;52.230;5.194;2024-03-17T07:55:47;9.18;;;5.38;;
53646;SDS011;39550;52.230;5.194;2024-03-17T07:58:22;7.32;;;4.53;;
53646;SDS011;39550;52.230;5.194;2024-03-17T08:00:48;7.85;;;5.38;;
53646;SDS011;39550;52.230;5.194;2024-03-17T08:03:13;8.80;;;5.85;;
53646;SDS011;39550;52.230;5.194;2024-03-17T08:05:38;8.85;;;5.40;;
53646;SDS011;39550;52.230;5.194;2024-03-17T08:08:03;9.80;;;5.32;;
53646;SDS011;39550;52.230;5.194;2024-03-17T08:10:30;9.18;;;5.32;;
53646;SDS011;39550;52.230;5.194;2024-03-17T08:12:55;8.70;;;5.50;;
53646;SDS011;39550;52.230;5.194;2024-03-17T08:15:20;8.77;;;5.15;;
53646;SDS011;39550;52.230;5.194;2024-03-17T08:17:46;8.77;;;5.15;;
53646;SDS011;39550;52.230;5.194;2024-03-17T08:20:11;9.02;;;5.25;;
53646;SDS011;39550;52.230;5.194;2024-03-17T08:22:36;9.95;;;5.60;;
53646;SDS011;39550;52.230;5.194;2024-03-17T08:25:02;9.52;;;5.57;;
53646;SDS011;39550;52.230;5.194;2024-03-17T08:27:29;8.32;;;5.28;;
53646;SDS011;39550;52.230;5.194;2024-03-17T08:29:55;9.75;;;5.43;;
53646;SDS011;39550;52.230;5.194;2024-03-17T08:32:20;7.53;;;5.03;;
53646;SDS011;39550;52.230;5.194;2024-03-17T08:34:49;10.77;;;5.75;;
53646;SDS011;39550;52.230;5.194;2024-03-17T08:37:14;8.10;;;5.00;;
53646;SDS011;39550;52.230;5.194;2024-03-17T08:39:39;8.25;;;5.28;;
53646;SDS011;39550;52.230;5.194;2024-03-17T08:42:04;7.57;;;4.93;;
53646;SDS011;39550;52.230;5.194;2024-03-17T08:44:30;9.40;;;5.45;;
53646;SDS011;39550;52.230;5.194;2024-03-17T08:46:55;9.15;;;6.00;;
53646;SDS011;39550;52.230;5.194;2024-03-17T08:49:22;8.38;;;4.68;;
53646;SDS011;39550;52.230;5.194;2024-03-17T08:51:47;12.35;;;5.68;;
53646;SDS011;39550;52.230;5.194;2024-03-17T08:54:13;9.38;;;5.90;;
53646;SDS011;39550;52.230;5.194;2024-03-17T08:56:38;10.70;;;6.47;;
53646;SDS011;39550;52.230;5.194;2024-03-17T08:59:03;9.48;;;5.78;;
53646;SDS011;39550;52.230;5.194;2024-03-17T09:01:28;8.75;;;5.28;;
53646;SDS011;39550;52.230;5.194;2024-03-17T09:03:54;9.50;;;5.10;;
53646;SDS011;39550;52.230;5.194;2024-03-17T09:06:21;9.60;;;5.43;;
53646;SDS011;39550;52.230;5.194;2024-03-17T09:08:47;8.50;;;4.95;;
53646;SDS011;39550;52.230;5.194;2024-03-17T09:11:13;8.50;;;5.35;;
53646;SDS011;39550;52.230;5.194;2024-03-17T09:13:39;7.57;;;4.82;;
53646;SDS011;39550;52.230;5.194;2024-03-17T09:26:49;7.95;;;5.10;;
53646;SDS011;39550;52.230;5.194;2024-03-17T09:29:14;7.85;;;4.95;;
53646;SDS011;39550;52.230;5.194;2024-03-17T09:31:42;10.05;;;5.43;;
53646;SDS011;39550;52.230;5.194;2024-03-17T09:34:08;9.80;;;5.45;;
53646;SDS011;39550;52.230;5.194;2024-03-17T09:36:34;9.00;;;5.40;;
53646;SDS011;39550;52.230;5.194;2024-03-17T09:39:00;9.00;;;5.55;;
53646;SDS011;39550;52.230;5.194;2024-03-17T09:41:29;7.70;;;5.18;;
53646;SDS011;39550;52.230;5.194;2024-03-17T09:43:55;9.23;;;5.30;;
53646;SDS011;39550;52.230;5.194;2024-03-17T09:46:24;8.82;;;5.53;;
53646;SDS011;39550;52.230;5.194;2024-03-17T09:48:51;7.88;;;4.80;;
53646;SDS011;39550;52.230;5.194;2024-03-17T09:51:20;10.60;;;5.25;;
53646;SDS011;39550;52.230;5.194;2024-03-17T09:53:47;9.20;;;6.10;;
53646;SDS011;39550;52.230;5.194;2024-03-17T09:56:13;8.32;;;5.32;;
53646;SDS011;39550;52.230;5.194;2024-03-17T09:58:46;7.78;;;4.70;;
53646;SDS011;39550;52.230;5.194;2024-03-17T10:01:15;9.07;;;5.35;;
53646;SDS011;39550;52.230;5.194;2024-03-17T10:03:51;8.10;;;5.40;;
53646;SDS011;39550;52.230;5.194;2024-03-17T10:06:19;8.57;;;5.55;;
53646;SDS011;39550;52.230;5.194;2024-03-17T10:08:47;7.40;;;4.82;;
53646;SDS011;39550;52.230;5.194;2024-03-17T10:11:15;9.23;;;5.35;;
53646;SDS011;39550;52.230;5.194;2024-03-17T10:13:43;9.25;;;5.72;;
53646;SDS011;39550;52.230;5.194;2024-03-17T10:16:30;8.93;;;5.43;;
53646;SDS011;39550;52.230;5.194;2024-03-17T10:19:08;8.98;;;5.93;;
53646;SDS011;39550;52.230;5.194;2024-03-17T10:21:44;8.25;;;5.38;;
53646;SDS011;39550;52.230;5.194;2024-03-17T10:24:19;8.55;;;4.85;;
53646;SDS011;39550;52.230;5.194;2024-03-17T10:29:19;9.25;;;5.88;;
53646;SDS011;39550;52.230;5.194;2024-03-17T10:31:55;10.10;;;5.30;;
53646;SDS011;39550;52.230;5.194;2024-03-17T10:34:23;8.73;;;5.20;;
53646;SDS011;39550;52.230;5.194;2024-03-17T10:39:50;8.55;;;5.32;;
53646;SDS011;39550;52.230;5.194;2024-03-17T10:42:22;8.60;;;5.43;;
53646;SDS011;39550;52.230;5.194;2024-03-17T10:44:50;9.27;;;5.65;;
53646;SDS011;39550;52.230;5.194;2024-03-17T10:47:18;10.13;;;5.95;;
53646;SDS011;39550;52.230;5.194;2024-03-17T10:49:47;12.20;;;5.65;;
53646;SDS011;39550;52.230;5.194;2024-03-17T10:52:18;8.80;;;5.15;;
53646;SDS011;39550;52.230;5.194;2024-03-17T10:54:48;10.45;;;5.78;;
53646;SDS011;39550;52.230;5.194;2024-03-17T11:00:07;7.82;;;5.40;;
53646;SDS011;39550;52.230;5.194;2024-03-17T11:02:33;9.57;;;5.18;;
53646;SDS011;39550;52.230;5.194;2024-03-17T11:07:29;9.88;;;5.30;;
53646;SDS011;39550;52.230;5.194;2024-03-17T11:09:56;12.25;;;7.68;;
53646;SDS011;39550;52.230;5.194;2024-03-17T11:12:43;9.85;;;5.72;;
53646;SDS011;39550;52.230;5.194;2024-03-17T11:17:45;10.07;;;5.60;;
53646;SDS011;39550;52.230;5.194;2024-03-17T11:20:32;13.07;;;5.95;;
53646;SDS011;39550;52.230;5.194;2024-03-17T11:22:57;8.02;;;5.45;;
53646;SDS011;39550;52.230;5.194;2024-03-17T11:38:53;8.75;;;5.18;;
53646;SDS011;39550;52.230;5.194;2024-03-17T11:49:25;10.07;;;5.63;;
53646;SDS011;39550;52.230;5.194;2024-03-17T11:51:56;8.57;;;5.68;;
53646;SDS011;39550;52.230;5.194;2024-03-17T11:54:44;8.05;;;4.93;;
53646;SDS011;39550;52.230;5.194;2024-03-17T11:59:37;11.48;;;6.18;;
53646;SDS011;39550;52.230;5.194;2024-03-17T12:02:20;10.27;;;5.38;;
53646;SDS011;39550;52.230;5.194;2024-03-17T12:04:47;8.75;;;5.50;;
53646;SDS011;39550;52.230;5.194;2024-03-17T12:07:14;9.65;;;5.40;;
53646;SDS011;39550;52.230;5.194;2024-03-17T12:09:41;9.13;;;5.68;;
53646;SDS011;39550;52.230;5.194;2024-03-17T12:12:16;9.38;;;5.60;;
53646;SDS011;39550;52.230;5.194;2024-03-17T12:15:00;9.07;;;4.93;;
53646;SDS011;39550;52.230;5.194;2024-03-17T12:17:27;12.07;;;6.45;;
53646;SDS011;39550;52.230;5.194;2024-03-17T12:19:52;8.63;;;5.05;;
53646;SDS011;39550;52.230;5.194;2024-03-17T12:22:19;11.68;;;6.18;;
53646;SDS011;39550;52.230;5.194;2024-03-17T12:24:50;9.02;;;5.70;;
53646;SDS011;39550;52.230;5.194;2024-03-17T12:27:24;9.27;;;5.55;;
53646;SDS011;39550;52.230;5.194;2024-03-17T12:29:51;9.25;;;5.20;;
53646;SDS011;39550;52.230;5.194;2024-03-17T12:32:21;11.57;;;5.60;;
53646;SDS011;39550;52.230;5.194;2024-03-17T12:34:54;14.82;;;6.30;;
53646;SDS011;39550;52.230;5.194;2024-03-17T12:37:23;9.60;;;5.93;;
53646;SDS011;39550;52.230;5.194;2024-03-17T12:39:51;9.27;;;5.93;;
53646;SDS011;39550;52.230;5.194;2024-03-17T12:42:18;9.15;;;5.72;;
53646;SDS011;39550;52.230;5.194;2024-03-17T12:47:18;10.83;;;6.23;;
53646;SDS011;39550;52.230;5.194;2024-03-17T12:55:01;10.25;;;6.07;;
53646;SDS011;39550;52.230;5.194;2024-03-17T12:57:54;9.27;;;5.38;;
53646;SDS011;39550;52.230;5.194;2024-03-17T13:03:29;8.98;;;5.05;;
53646;SDS011;39550;52.230;5.194;2024-03-17T13:05:58;9.27;;;5.75;;
53646;SDS011;39550;52.230;5.194;2024-03-17T13:08:23;11.23;;;6.38;;
53646;SDS011;39550;52.230;5.194;2024-03-17T13:10:49;8.95;;;5.68;;
53646;SDS011;39550;52.230;5.194;2024-03-17T13:13:14;9.77;;;5.80;;
53646;SDS011;39550;52.230;5.194;2024-03-17T13:15:41;9.50;;;5.93;;
53646;SDS011;39550;52.230;5.194;2024-03-17T13:18:07;10.95;;;6.50;;
53646;SDS011;39550;52.230;5.194;2024-03-17T13:20:32;13.93;;;6.72;;
53646;SDS011;39550;52.230;5.194;2024-03-17T13:22:58;11.10;;;5.60;;
53646;SDS011;39550;52.230;5.194;2024-03-17T13:25:29;10.63;;;6.38;;
53646;SDS011;39550;52.230;5.194;2024-03-17T13:27:59;10.68;;;5.90;;
53646;SDS011;39550;52.230;5.194;2024-03-17T13:30:25;11.52;;;6.18;;
53646;SDS011;39550;52.230;5.194;2024-03-17T13:32:53;10.30;;;6.63;;
53646;SDS011;39550;52.230;5.194;2024-03-17T13:35:28;11.38;;;6.40;;
53646;SDS011;39550;52.230;5.194;2024-03-17T13:37:54;11.65;;;7.22;;
53646;SDS011;39550;52.230;5.194;2024-03-17T13:40:21;10.43;;;6.35;;
53646;SDS011;39550;52.230;5.194;2024-03-17T13:42:48;13.75;;;6.95;;
53646;SDS011;39550;52.230;5.194;2024-03-17T13:45:16;11.25;;;6.30;;
53646;SDS011;39550;52.230;5.194;2024-03-17T13:50:24;11.82;;;6.55;;
53646;SDS011;39550;52.230;5.194;2024-03-17T13:52:49;11.75;;;7.15;;
53646;SDS011;39550;52.230;5.194;2024-03-17T13:57:41;8.80;;;5.93;;
53646;SDS011;39550;52.230;5.194;2024-03-17T14:00:09;12.38;;;7.03;;
53646;SDS011;39550;52.230;5.194;2024-03-17T14:02:35;10.15;;;6.10;;
53646;SDS011;39550;52.230;5.194;2024-03-17T14:05:00;11.02;;;6.22;;
53646;SDS011;39550;52.230;5.194;2024-03-17T14:07:27;14.05;;;7.07;;
53646;SDS011;39550;52.230;5.194;2024-03-17T14:09:52;10.63;;;6.40;;
53646;SDS011;39550;52.230;5.194;2024-03-17T14:12:17;11.07;;;6.43;;
53646;SDS011;39550;52.230;5.194;2024-03-17T14:14:42;10.20;;;6.22;;
53646;SDS011;39550;52.230;5.194;2024-03-17T14:17:11;9.80;;;6.18;;
53646;SDS011;39550;52.230;5.194;2024-03-17T14:19:36;13.45;;;7.20;;
53646;SDS011;39550;52.230;5.194;2024-03-17T14:22:01;11.30;;;7.30;;
53646;SDS011;39550;52.230;5.194;2024-03-17T14:24:27;11.05;;;6.13;;
53646;SDS011;39550;52.230;5.194;2024-03-17T14:26:53;12.07;;;7.53;;
53646;SDS011;39550;52.230;5.194;2024-03-17T14:29:18;10.98;;;6.78;;
53646;SDS011;39550;52.230;5.194;2024-03-17T14:31:44;11.43;;;6.75;;
53646;SDS011;39550;52.230;5.194;2024-03-17T14:34:10;13.63;;;7.40;;
53646;SDS011;39550;52.230;5.194;2024-03-17T14:36:36;12.57;;;6.72;;
53646;SDS011;39550;52.230;5.194;2024-03-17T14:39:01;11.32;;;6.40;;
53646;SDS011;39550;52.230;5.194;2024-03-17T14:41:28;10.93;;;6.47;;
53646;SDS011;39550;52.230;5.194;2024-03-17T14:43:54;11.35;;;6.63;;
53646;SDS011;39550;52.230;5.194;2024-03-17T14:46:20;10.68;;;6.22;;
53646;SDS011;39550;52.230;5.194;2024-03-17T14:48:45;12.80;;;6.53;;
53646;SDS011;39550;52.230;5.194;2024-03-17T14:51:10;10.85;;;7.07;;
53646;SDS011;39550;52.230;5.194;2024-03-17T14:53:36;12.45;;;6.20;;
53646;SDS011;39550;52.230;5.194;2024-03-17T14:56:07;11.20;;;6.72;;
53646;SDS011;39550;52.230;5.194;2024-03-17T14:58:32;10.48;;;5.88;;
53646;SDS011;39550;52.230;5.194;2024-03-17T15:00:58;11.98;;;6.80;;
53646;SDS011;39550;52.230;5.194;2024-03-17T15:03:23;10.35;;;6.30;;
53646;SDS011;39550;52.230;5.194;2024-03-17T15:05:49;10.75;;;6.80;;
53646;SDS011;39550;52.230;5.194;2024-03-17T15:08:14;11.77;;;6.72;;
53646;SDS011;39550;52.230;5.194;2024-03-17T15:10:39;12.23;;;7.00;;
53646;SDS011;39550;52.230;5.194;2024-03-17T15:13:04;11.43;;;6.75;;
53646;SDS011;39550;52.230;5.194;2024-03-17T15:15:30;10.02;;;6.15;;
53646;SDS011;39550;52.230;5.194;2024-03-17T15:17:55;9.20;;;6.20;;
53646;SDS011;39550;52.230;5.194;2024-03-17T15:20:20;11.25;;;6.85;;
53646;SDS011;39550;52.230;5.194;2024-03-17T15:22:46;12.00;;;6.90;;
53646;SDS011;39550;52.230;5.194;2024-03-17T15:25:14;11.55;;;6.85;;
53646;SDS011;39550;52.230;5.194;2024-03-17T15:27:41;8.25;;;5.68;;
53646;SDS011;39550;52.230;5.194;2024-03-17T15:30:07;11.93;;;6.97;;
53646;SDS011;39550;52.230;5.194;2024-03-17T15:32:36;13.07;;;6.63;;
53646;SDS011;39550;52.230;5.194;2024-03-17T15:35:02;9.63;;;6.07;;
53646;SDS011;39550;52.230;5.194;2024-03-17T15:37:27;10.68;;;6.25;;
53646;SDS011;39550;52.230;5.194;2024-03-17T15:39:53;10.63;;;6.32;;
53646;SDS011;39550;52.230;5.194;2024-03-17T15:42:20;13.55;;;6.97;;
53646;SDS011;39550;52.230;5.194;2024-03-17T15:44:45;11.60;;;6.13;;
53646;SDS011;39550;52.230;5.194;2024-03-17T15:47:12;11.20;;;6.32;;
53646;SDS011;39550;52.230;5.194;2024-03-17T15:49:38;12.55;;;6.78;;
53646;SDS011;39550;52.230;5.194;2024-03-17T15:52:04;9.90;;;5.85;;